Time;durP1;ratioP1;P1;durP2;ratioP2;P2;SDS_P1;SDS_P2;PMS_P1;PMS_P2;Temp;Humidity;BMP_temperature;BMP_pressure;BME280_temperature;BME280_humidity;BME280_pressure;Samples;Min_cycle;Max_cycle;Signal;HPM_P1;HPM_P2
2022/02/04 00:23:46;;;;;;;7.80;4.37;;;6.70;99.90;;;;;;4991822;28;21048;-69
2022/02/04 00:33:35;;;;;;;9.70;5.27;;;6.70;99.90;;;;;;4999120;28;20221;-69
2022/02/04 00:36:10;;;;;;;5.73;3.60;;;6.70;99.90;;;;;;4995132;28;21022;-68
2022/02/04 00:38:40;;;;;;;8.60;4.77;;;6.70;99.90;;;;;;4981568;28;20994;-69
2022/02/04 00:41:09;;;;;;;6.23;4.20;;;6.70;99.90;;;;;;4988599;28;20480;-68
2022/02/04 00:43:36;;;;;;;6.47;4.70;;;6.60;99.90;;;;;;5004682;28;20873;-69
2022/02/04 00:51:02;;;;;;;6.67;4.23;;;6.70;99.90;;;;;;4976482;28;20233;-68
2022/02/04 00:53:40;;;;;;;6.50;4.13;;;6.70;99.90;;;;;;5006510;28;20280;-69
2022/02/04 01:28:26;;;;;;;5.10;3.90;;;6.70;99.90;;;;;;5008865;28;20459;-68
2022/02/04 01:30:54;;;;;;;5.20;3.80;;;6.60;99.90;;;;;;5005360;28;20464;-69
2022/02/04 01:33:20;;;;;;;8.20;3.40;;;6.60;99.90;;;;;;5009680;28;20467;-69
2022/02/04 01:35:46;;;;;;;2.50;2.30;;;6.60;99.90;;;;;;4998597;28;20464;-69
2022/02/04 01:38:12;;;;;;;11.50;3.90;;;6.60;99.90;;;;;;4992156;28;20229;-69
2022/02/04 01:40:38;;;;;;;6.40;3.40;;;6.60;99.90;;;;;;4975894;28;20465;-69
2022/02/04 01:43:04;;;;;;;4.83;3.77;;;6.60;99.90;;;;;;4995792;28;20344;-69
2022/02/04 01:45:30;;;;;;;5.80;3.40;;;6.60;99.90;;;;;;5000965;28;20542;-69
2022/02/04 01:47:56;;;;;;;3.80;3.40;;;6.60;99.90;;;;;;4992366;28;20287;-69
2022/02/04 01:50:30;;;;;;;4.57;3.17;;;6.60;99.90;;;;;;4991993;28;20512;-69
2022/02/04 01:52:58;;;;;;;7.30;4.30;;;6.60;99.90;;;;;;4990607;28;20970;-68
2022/02/04 01:55:25;;;;;;;4.00;2.90;;;6.60;99.90;;;;;;4993488;28;20453;-69
2022/02/04 01:57:50;;;;;;;4.13;3.10;;;6.60;99.90;;;;;;5011060;28;20585;-69
2022/02/04 02:00:17;;;;;;;3.93;3.30;;;6.60;99.90;;;;;;4994532;28;20568;-70
2022/02/04 02:02:43;;;;;;;5.20;3.43;;;6.60;99.90;;;;;;4993646;28;20291;-69
2022/02/04 02:05:09;;;;;;;5.93;3.07;;;6.70;99.90;;;;;;5007366;28;20923;-70
2022/02/04 02:07:41;;;;;;;4.00;2.90;;;6.70;99.90;;;;;;4989897;28;20222;-70
2022/02/04 02:10:11;;;;;;;8.17;3.30;;;6.70;99.90;;;;;;4991524;28;20559;-69
2022/02/04 02:13:10;;;;;;;4.53;3.00;;;6.70;99.90;;;;;;5003082;28;20473;-69
2022/02/04 02:15:40;;;;;;;4.13;3.00;;;6.70;99.90;;;;;;4999260;28;20457;-69
2022/02/04 02:50:46;;;;;;;5.60;3.57;;;6.80;99.90;;;;;;4994963;28;20468;-69
2022/02/04 03:03:05;;;;;;;6.20;3.77;;;6.80;99.90;;;;;;4990136;28;20540;-69
2022/02/04 03:05:31;;;;;;;5.20;4.40;;;6.80;99.90;;;;;;4973277;28;20473;-70
2022/02/04 03:07:57;;;;;;;4.93;4.10;;;6.80;99.90;;;;;;4995287;28;20813;-70
2022/02/04 03:10:23;;;;;;;8.33;4.30;;;6.80;99.90;;;;;;4998486;28;20480;-70
2022/02/04 03:12:49;;;;;;;6.00;4.00;;;6.80;99.90;;;;;;4989810;28;20233;-68
2022/02/04 03:15:15;;;;;;;7.37;4.03;;;6.80;99.90;;;;;;4988464;28;20706;-69
2022/02/04 03:17:42;;;;;;;6.43;4.00;;;6.80;99.90;;;;;;4993273;28;20461;-69
2022/02/04 03:20:12;;;;;;;7.83;4.83;;;6.80;99.90;;;;;;5008941;28;20248;-68
2022/02/04 03:22:39;;;;;;;6.97;4.43;;;6.80;99.90;;;;;;4988067;28;20911;-69
2022/02/04 03:25:08;;;;;;;7.73;3.97;;;6.70;99.90;;;;;;4989999;28;20587;-69
2022/02/04 03:27:44;;;;;;;6.03;3.90;;;6.70;99.90;;;;;;4992224;28;20464;-69
2022/02/04 03:30:17;;;;;;;6.03;4.00;;;6.70;99.90;;;;;;5001478;28;20464;-69
2022/02/04 03:32:50;;;;;;;8.43;4.90;;;6.70;99.90;;;;;;4970082;28;20541;-70
2022/02/04 03:35:20;;;;;;;7.87;5.03;;;6.70;99.90;;;;;;4977588;28;20465;-69
2022/02/04 03:37:47;;;;;;;7.63;4.50;;;6.70;99.90;;;;;;4991360;28;20450;-70
2022/02/04 03:40:14;;;;;;;5.70;4.20;;;6.70;99.90;;;;;;5005723;28;20469;-69
2022/02/04 03:42:40;;;;;;;8.77;4.90;;;6.70;99.90;;;;;;4997022;28;20476;-69
2022/02/04 03:45:06;;;;;;;7.00;4.70;;;6.70;99.90;;;;;;4973672;28;20449;-69
2022/02/04 03:47:31;;;;;;;6.37;4.73;;;6.70;99.90;;;;;;4988825;28;20213;-70
2022/02/04 03:49:57;;;;;;;10.30;5.40;;;6.70;99.90;;;;;;5000581;28;20849;-69
2022/02/04 03:52:23;;;;;;;7.50;5.60;;;6.70;99.90;;;;;;4989327;28;20253;-69
2022/02/04 03:54:49;;;;;;;8.53;4.83;;;6.70;99.90;;;;;;4973641;28;20230;-69
2022/02/04 03:57:15;;;;;;;7.03;4.60;;;6.80;99.90;;;;;;4990040;28;20308;-69
2022/02/04 03:59:40;;;;;;;9.03;5.03;;;6.70;99.90;;;;;;4989766;28;20696;-69
2022/02/04 04:02:06;;;;;;;8.40;4.57;;;6.70;99.90;;;;;;4988955;28;20592;-69
2022/02/04 04:04:34;;;;;;;7.87;4.60;;;6.70;99.90;;;;;;4989525;28;20469;-69
2022/02/04 04:07:00;;;;;;;8.80;5.60;;;6.70;99.90;;;;;;4991152;28;20210;-69
2022/02/04 04:09:27;;;;;;;9.97;5.03;;;6.70;99.90;;;;;;4988976;28;20473;-69
2022/02/04 04:11:53;;;;;;;5.73;4.53;;;6.70;99.90;;;;;;4991545;28;20498;-68
2022/02/04 04:14:19;;;;;;;6.13;3.93;;;6.70;99.90;;;;;;4986997;28;20448;-69
2022/02/04 04:16:47;;;;;;;6.10;3.67;;;6.70;99.90;;;;;;4989356;28;20450;-69
2022/02/04 04:19:13;;;;;;;8.53;4.10;;;6.70;99.90;;;;;;4970129;28;20225;-69
2022/02/04 04:21:38;;;;;;;5.73;4.73;;;6.70;99.90;;;;;;4989736;28;20444;-70
2022/02/04 04:24:04;;;;;;;5.63;4.33;;;6.70;99.90;;;;;;5000200;28;20453;-69
2022/02/04 04:26:30;;;;;;;8.13;3.90;;;6.70;99.90;;;;;;4993100;28;20224;-69
2022/02/04 04:28:56;;;;;;;6.00;4.43;;;6.70;99.90;;;;;;4989695;28;20451;-69
2022/02/04 04:31:22;;;;;;;6.83;4.67;;;6.70;99.90;;;;;;4976423;28;20242;-70
2022/02/04 04:33:48;;;;;;;5.80;4.40;;;6.70;99.90;;;;;;4988793;28;20225;-70
2022/02/04 04:36:13;;;;;;;9.87;4.80;;;6.70;99.90;;;;;;4973385;28;20222;-69
2022/02/04 04:38:56;;;;;;;7.27;3.50;;;6.70;99.90;;;;;;5005438;28;20221;-70
2022/02/04 05:30:15;;;;;;;7.00;3.67;;;6.70;99.90;;;;;;4993579;28;20589;-69
2022/02/04 05:32:42;;;;;;;5.07;3.60;;;6.80;99.90;;;;;;4979001;28;20217;-69
2022/02/04 05:35:09;;;;;;;4.43;3.50;;;6.80;99.90;;;;;;5008636;28;20490;-69
2022/02/04 05:37:40;;;;;;;4.13;3.07;;;6.70;99.90;;;;;;4992553;28;20514;-69
2022/02/04 05:40:11;;;;;;;5.43;3.77;;;6.80;99.90;;;;;;4970112;28;20453;-68
2022/02/04 05:42:45;;;;;;;4.30;3.33;;;6.80;99.90;;;;;;4992724;28;20465;-69
2022/02/04 05:45:23;;;;;;;4.30;3.13;;;6.80;99.90;;;;;;4982103;28;20453;-69
2022/02/04 05:47:55;;;;;;;3.10;2.57;;;6.80;99.90;;;;;;4998873;28;20513;-69
2022/02/04 05:50:30;;;;;;;4.90;3.10;;;6.90;99.90;;;;;;4993503;28;20473;-70
2022/02/04 06:01:43;;;;;;;6.27;3.70;;;6.90;99.90;;;;;;4988449;28;20456;-70
2022/02/04 06:06:21;;;;;;;;;;;;;;;;;;;;;
2022/02/04 06:24:31;;;;;;;7.40;4.90;;;6.90;99.90;;;;;;4976421;28;20496;-73
2022/02/04 06:26:57;;;;;;;7.83;4.37;;;6.90;99.90;;;;;;4996483;28;20609;-71
2022/02/04 06:29:23;;;;;;;5.03;3.17;;;6.90;99.90;;;;;;4991166;28;20715;-71
2022/02/04 06:31:49;;;;;;;5.70;4.10;;;6.90;99.90;;;;;;4987791;28;20236;-71
2022/02/04 06:34:15;;;;;;;7.73;4.53;;;6.90;99.90;;;;;;4988618;28;20840;-72
2022/02/04 06:36:41;;;;;;;9.60;4.77;;;6.90;99.90;;;;;;4977299;28;20901;-71
2022/02/04 06:39:07;;;;;;;8.13;5.03;;;6.90;99.90;;;;;;4991614;28;20532;-71
2022/02/04 06:41:32;;;;;;;5.40;3.80;;;6.90;99.90;;;;;;4987623;28;20226;-71
2022/02/04 06:44:02;;;;;;;7.03;3.70;;;6.90;99.90;;;;;;4981770;28;20214;-71
2022/02/04 06:46:30;;;;;;;7.93;4.70;;;6.90;99.90;;;;;;4981297;28;20250;-72
2022/02/04 06:48:57;;;;;;;10.13;5.00;;;6.90;99.90;;;;;;4985550;28;20437;-72
2022/02/04 06:51:22;;;;;;;10.83;5.43;;;6.90;99.90;;;;;;4975608;28;20552;-72
2022/02/04 06:53:48;;;;;;;8.13;4.50;;;7.00;99.90;;;;;;4976742;28;20569;-71
2022/02/04 06:56:14;;;;;;;6.20;4.57;;;7.00;99.90;;;;;;4977189;28;20222;-71
2022/02/04 06:58:40;;;;;;;7.10;4.03;;;6.90;99.90;;;;;;4989975;28;20210;-73
2022/02/04 07:01:06;;;;;;;6.80;3.73;;;6.90;99.90;;;;;;4993228;28;21032;-72
2022/02/04 07:03:33;;;;;;;6.20;4.47;;;6.90;99.90;;;;;;4961679;28;20255;-70
2022/02/04 07:06:00;;;;;;;6.27;4.83;;;6.90;99.90;;;;;;4957517;28;20234;-72
2022/02/04 07:09:15;;;;;;;7.50;5.00;;;6.90;99.90;;;;;;4990089;28;20465;-70
2022/02/04 07:11:36;;;;;;;8.27;5.50;;;6.90;99.90;;;;;;4993889;28;20443;-69
2022/02/04 07:16:36;;;;;;;11.73;5.73;;;7.00;99.90;;;;;;4977374;28;20513;-69
2022/02/04 07:21:46;;;;;;;9.40;5.70;;;7.00;99.90;;;;;;4991842;28;20452;-70
2022/02/04 07:24:12;;;;;;;8.10;4.60;;;7.00;99.90;;;;;;4983521;28;20462;-70
2022/02/04 07:26:38;;;;;;;8.63;5.33;;;7.00;99.90;;;;;;4987831;28;20221;-69
2022/02/04 07:29:04;;;;;;;7.63;4.67;;;7.00;99.90;;;;;;4987465;28;20304;-70
2022/02/04 07:31:34;;;;;;;8.40;4.77;;;7.00;99.90;;;;;;4988483;28;20274;-70
2022/02/04 07:34:34;;;;;;;7.10;4.43;;;7.00;99.90;;;;;;4983965;28;20457;-69
2022/02/04 07:42:28;;;;;;;7.80;4.93;;;7.10;99.90;;;;;;4996475;28;20492;-69
2022/02/04 07:44:54;;;;;;;9.47;5.77;;;7.10;99.90;;;;;;4978763;28;20465;-69
2022/02/04 07:47:20;;;;;;;6.60;4.53;;;7.10;99.90;;;;;;4960940;28;20245;-69
2022/02/04 07:49:46;;;;;;;6.30;4.30;;;7.00;99.90;;;;;;4972573;28;20235;-69
2022/02/04 07:52:11;;;;;;;8.00;5.30;;;7.10;99.90;;;;;;4990724;28;20214;-69
2022/02/04 07:54:37;;;;;;;6.40;4.40;;;7.10;99.90;;;;;;4984413;28;20245;-70
2022/02/04 07:57:03;;;;;;;6.57;4.73;;;7.10;99.90;;;;;;4976423;28;20623;-69
2022/02/04 07:59:29;;;;;;;8.20;3.80;;;7.10;99.90;;;;;;4983542;28;20276;-70
2022/02/04 08:01:54;;;;;;;5.80;3.30;;;7.00;99.90;;;;;;5005153;28;20308;-71
2022/02/04 08:04:25;;;;;;;6.47;4.23;;;7.00;99.90;;;;;;4989869;28;20261;-69
2022/02/04 08:06:56;;;;;;;4.70;3.80;;;7.00;99.90;;;;;;4982658;28;20672;-70
2022/02/04 08:32:26;;;;;;;4.10;2.60;;;7.10;99.90;;;;;;4986785;28;20453;-70
2022/02/04 08:54:33;;;;;;;3.23;2.60;;;7.20;99.90;;;;;;4977202;28;20457;-69
2022/02/04 08:59:44;;;;;;;4.17;3.17;;;7.20;99.90;;;;;;4994371;28;20523;-69
2022/02/04 09:02:32;;;;;;;5.10;3.23;;;7.20;99.90;;;;;;4985669;28;20730;-69
2022/02/04 09:04:59;;;;;;;4.70;3.40;;;7.20;99.90;;;;;;4982623;28;20525;-68
2022/02/04 09:07:31;;;;;;;4.23;3.10;;;7.20;99.90;;;;;;4984672;28;20978;-70
2022/02/04 09:10:09;;;;;;;4.87;3.30;;;7.20;99.90;;;;;;4980470;28;20464;-69
2022/02/04 09:20:28;;;;;;;7.97;4.67;;;7.30;99.90;;;;;;4992949;28;20461;-70
2022/02/04 09:22:54;;;;;;;3.87;2.80;;;7.30;99.90;;;;;;4992443;28;20228;-69
2022/02/04 09:25:20;;;;;;;6.07;3.83;;;7.30;99.90;;;;;;4970893;28;20456;-70
2022/02/04 09:27:46;;;;;;;4.47;3.17;;;7.30;99.90;;;;;;4980494;28;20756;-69
2022/02/04 09:30:14;;;;;;;5.97;3.43;;;7.30;99.90;;;;;;4988040;28;20238;-69
2022/02/04 09:32:40;;;;;;;4.07;3.23;;;7.30;99.90;;;;;;4976761;28;20473;-69
2022/02/04 09:35:18;;;;;;;4.00;3.13;;;7.20;99.90;;;;;;4997616;28;20454;-70
2022/02/04 09:37:46;;;;;;;3.43;2.40;;;7.30;99.90;;;;;;4984258;28;20481;-69
2022/02/04 09:40:13;;;;;;;5.70;3.20;;;7.30;99.90;;;;;;4988232;28;20471;-68
2022/02/04 09:42:39;;;;;;;5.47;3.20;;;7.30;99.90;;;;;;4977133;28;20472;-69
2022/02/04 09:45:07;;;;;;;5.57;2.73;;;7.30;99.90;;;;;;4966597;28;20559;-70
2022/02/04 09:47:35;;;;;;;5.10;3.20;;;7.30;99.90;;;;;;4963782;28;20456;-70
2022/02/04 09:50:09;;;;;;;4.27;3.20;;;7.30;99.90;;;;;;4983369;28;20483;-69
2022/02/04 10:22:47;;;;;;;3.57;3.00;;;7.40;99.90;;;;;;4982473;28;20452;-69
2022/02/04 10:25:12;;;;;;;3.83;2.53;;;7.40;99.90;;;;;;4965887;28;20453;-69
2022/02/04 10:27:39;;;;;;;4.43;3.80;;;7.40;99.90;;;;;;4984660;28;20469;-69
2022/02/04 10:30:10;;;;;;;5.07;4.50;;;7.40;99.90;;;;;;4983008;28;20235;-69
2022/02/04 10:32:36;;;;;;;5.27;4.63;;;7.40;99.90;;;;;;4987268;28;20473;-71
2022/02/04 10:35:07;;;;;;;4.17;3.70;;;7.40;99.90;;;;;;4981806;28;20540;-69
2022/02/04 10:37:37;;;;;;;4.20;3.90;;;7.40;99.90;;;;;;4995716;28;20223;-71
2022/02/04 10:40:22;;;;;;;3.77;2.70;;;7.40;99.90;;;;;;4985451;28;20458;-69
2022/02/04 10:45:32;;;;;;;2.13;1.90;;;7.40;99.90;;;;;;4981035;28;20476;-69
2022/02/04 10:53:39;;;;;;;45.47;24.03;;;7.40;99.90;;;;;;4982542;28;20489;-70
2022/02/04 11:01:16;;;;;;;28.37;17.80;;;7.40;99.90;;;;;;4990301;28;20547;-70
2022/02/04 11:03:51;;;;;;;38.20;21.83;;;7.40;99.90;;;;;;4977518;28;20469;-69
2022/02/04 11:09:06;;;;;;;20.73;13.20;;;7.40;99.90;;;;;;4974706;28;20462;-69
2022/02/04 11:11:50;;;;;;;35.37;17.17;;;7.40;99.90;;;;;;4984628;28;20471;-70
2022/02/04 11:36:22;;;;;;;1.43;1.33;;;7.60;99.90;;;;;;5003241;28;20507;-68
2022/02/04 11:54:47;;;;;;;1.20;1.10;;;7.60;99.90;;;;;;4994134;28;20535;-69
2022/02/04 11:57:18;;;;;;;2.77;2.20;;;7.70;99.90;;;;;;5000686;28;20457;-69
2022/02/04 11:59:52;;;;;;;6.33;3.80;;;7.70;99.90;;;;;;4964635;28;20536;-70
2022/02/04 12:02:27;;;;;;;8.63;5.00;;;7.70;99.90;;;;;;4960940;28;20540;-69
2022/02/04 12:05:05;;;;;;;;;;;;;;;;;;;;;
2022/02/04 12:07:42;;;;;;;39.07;20.57;;;7.80;99.90;;;;;;4992861;28;20461;-70
2022/02/04 12:10:13;;;;;;;56.20;24.53;;;7.80;99.90;;;;;;4969311;28;20586;-69
2022/02/04 12:15:32;;;;;;;23.87;13.47;;;7.80;99.90;;;;;;4984335;28;20538;-69
2022/02/04 12:18:06;;;;;;;18.17;8.90;;;7.80;99.90;;;;;;4978039;28;20522;-70
2022/02/04 12:20:58;;;;;;;9.10;5.73;;;7.90;99.90;;;;;;4961150;28;20857;-70
2022/02/04 12:23:32;;;;;;;5.53;4.50;;;7.90;99.90;;;;;;4963080;28;20479;-69
2022/02/04 12:26:33;;;;;;;3.60;2.80;;;7.90;99.90;;;;;;4974227;28;20452;-69
2022/02/04 12:29:07;;;;;;;2.47;2.20;;;7.90;99.90;;;;;;4989474;28;20445;-69
2022/02/04 12:31:38;;;;;;;2.00;1.90;;;7.90;99.90;;;;;;4977285;28;20478;-70
2022/02/04 12:34:14;;;;;;;2.50;2.20;;;7.90;99.90;;;;;;4981742;28;20468;-69
2022/02/04 12:36:47;;;;;;;2.60;2.13;;;7.90;99.90;;;;;;4988265;28;21021;-69
2022/02/04 12:39:18;;;;;;;2.70;2.17;;;8.00;99.90;;;;;;4981841;28;20463;-69
2022/02/04 12:41:52;;;;;;;2.10;2.00;;;7.90;99.90;;;;;;4968561;28;20476;-70
2022/02/04 12:44:20;;;;;;;2.23;1.67;;;7.90;99.90;;;;;;4966152;28;20461;-68
2022/02/04 12:46:52;;;;;;;2.20;2.00;;;8.00;99.90;;;;;;4985378;28;20527;-69
2022/02/04 12:49:20;;;;;;;1.93;1.70;;;8.00;99.90;;;;;;4979883;28;20462;-69
2022/02/04 12:52:02;;;;;;;2.43;2.23;;;8.00;99.90;;;;;;4975179;28;20449;-68
2022/02/04 12:54:46;;;;;;;2.50;2.20;;;8.00;99.90;;;;;;4987765;28;20473;-70
2022/02/04 13:08:24;;;;;;;3.13;2.50;;;8.00;99.90;;;;;;4991283;28;20455;-70
2022/02/04 13:11:04;;;;;;;2.63;2.43;;;8.00;99.90;;;;;;4994683;28;20465;-70
2022/02/04 13:13:42;;;;;;;3.10;2.73;;;8.00;99.90;;;;;;4986193;28;20572;-69
2022/02/04 13:16:21;;;;;;;3.30;2.03;;;8.00;99.90;;;;;;4982715;28;20994;-69
2022/02/04 13:18:47;;;;;;;3.57;2.23;;;8.00;99.90;;;;;;4999619;28;20594;-70
2022/02/04 13:21:14;;;;;;;2.60;2.20;;;8.00;99.90;;;;;;4988231;28;20472;-69
2022/02/04 13:23:40;;;;;;;2.63;2.00;;;8.00;99.90;;;;;;4988235;28;20478;-70
2022/02/04 13:26:06;;;;;;;2.73;2.43;;;8.00;99.90;;;;;;4988038;28;20460;-70
2022/02/04 13:28:37;;;;;;;3.10;1.97;;;8.00;99.90;;;;;;4989688;28;20455;-69
2022/02/04 13:31:08;;;;;;;6.13;4.33;;;8.00;99.90;;;;;;4990472;28;20480;-69
2022/02/04 13:33:42;;;;;;;4.93;4.00;;;8.00;99.90;;;;;;4971644;28;20828;-69
2022/02/04 13:36:34;;;;;;;5.23;3.63;;;8.00;99.90;;;;;;4988265;28;20460;-69
2022/02/04 13:45:12;;;;;;;3.13;2.60;;;8.00;99.90;;;;;;4975806;28;20453;-69
2022/02/04 13:58:27;;;;;;;;;;;;;;;;;;;;;
2022/02/04 14:01:02;;;;;;;;;;;;;;;;;;;;;
2022/02/04 14:03:28;;;;;;;27.07;12.37;;;7.90;99.90;;;;;;4980135;28;21069;-69
2022/02/04 14:06:04;;;;;;;32.03;17.70;;;7.90;99.90;;;;;;4982193;28;20955;-69
2022/02/04 14:08:38;;;;;;;27.37;17.57;;;7.90;99.90;;;;;;4985894;28;20449;-69
2022/02/04 14:11:07;;;;;;;25.23;15.00;;;7.90;99.90;;;;;;4994636;28;20456;-69
2022/02/04 14:13:34;;;;;;;25.30;12.40;;;7.90;99.90;;;;;;4978959;28;20466;-72
2022/02/04 14:16:02;;;;;;;14.07;8.00;;;7.90;99.90;;;;;;4964842;28;20449;-70
2022/02/04 14:18:30;;;;;;;6.50;4.50;;;7.90;99.90;;;;;;4979845;28;20461;-69
2022/02/04 14:20:57;;;;;;;7.80;4.90;;;7.90;99.90;;;;;;4997691;28;20524;-69
2022/02/04 14:23:23;;;;;;;6.33;5.00;;;7.80;99.90;;;;;;4993619;28;20491;-69
2022/02/04 14:25:58;;;;;;;5.50;3.83;;;7.80;99.90;;;;;;4989158;28;20519;-69
2022/02/04 14:28:36;;;;;;;2.20;1.20;;;7.80;99.90;;;;;;4982817;28;20492;-69
2022/02/04 14:31:12;;;;;;;0.90;0.90;;;7.80;99.90;;;;;;4984741;28;20457;-69
2022/02/04 15:03:15;;;;;;;11.93;10.17;;;7.80;99.90;;;;;;4982798;28;20473;-72
2022/02/04 15:06:01;;;;;;;40.80;23.50;;;7.80;99.90;;;;;;4975798;28;20457;-72
2022/02/04 15:08:30;;;;;;;44.27;26.00;;;7.80;99.90;;;;;;4973148;28;20458;-72
2022/02/04 15:10:59;;;;;;;49.17;23.23;;;7.80;99.90;;;;;;4970434;28;20452;-72
2022/02/04 15:13:25;;;;;;;85.53;35.27;;;7.90;99.90;;;;;;4991295;28;20894;-72
2022/02/04 15:15:51;;;;;;;113.30;47.50;;;7.90;99.90;;;;;;4985648;28;20452;-72
2022/02/04 15:18:16;;;;;;;62.00;27.50;;;7.90;99.90;;;;;;4978028;28;20228;-72
2022/02/04 15:20:42;;;;;;;43.70;20.10;;;7.90;99.90;;;;;;4985712;28;20688;-72
2022/02/04 15:23:12;;;;;;;33.50;16.77;;;7.90;99.90;;;;;;4991317;28;20222;-72
2022/02/04 15:25:37;;;;;;;20.30;11.60;;;7.90;99.90;;;;;;4985643;28;20467;-72
2022/02/04 15:28:23;;;;;;;42.03;18.50;;;7.80;99.90;;;;;;4980286;28;20480;-71
2022/02/04 15:30:49;;;;;;;37.53;20.33;;;7.80;99.90;;;;;;4959268;28;20242;-71
2022/02/04 15:33:15;;;;;;;33.00;18.03;;;7.80;99.90;;;;;;4985288;28;20548;-72
2022/02/04 15:35:41;;;;;;;30.37;14.97;;;7.80;99.90;;;;;;4986599;28;20453;-73
2022/02/04 15:38:09;;;;;;;54.90;27.07;;;7.80;99.90;;;;;;4985466;28;20371;-71
2022/02/04 15:40:34;;;;;;;31.77;18.47;;;7.80;99.90;;;;;;4975508;28;20229;-71
2022/02/04 15:43:03;;;;;;;25.17;15.57;;;7.70;99.90;;;;;;4986686;28;20453;-71
2022/02/04 15:50:44;;;;;;;16.97;10.50;;;7.70;99.90;;;;;;4978876;28;20496;-71
2022/02/04 15:53:58;;;;;;;7.37;4.87;;;7.70;99.90;;;;;;4982648;28;20473;-71
2022/02/04 15:56:25;;;;;;;4.00;2.87;;;7.70;99.90;;;;;;4979002;28;20458;-72
2022/02/04 16:06:19;;;;;;;1.53;1.40;;;7.70;99.90;;;;;;4988436;28;20261;-72
2022/02/04 16:08:45;;;;;;;1.07;0.97;;;7.70;99.90;;;;;;4995213;28;20224;-71
2022/02/04 16:11:31;;;;;;;2.30;1.57;;;7.80;99.90;;;;;;4973338;28;20477;-71
2022/02/04 16:16:49;;;;;;;1.90;1.80;;;7.70;99.90;;;;;;4988433;28;21032;-72
2022/02/04 16:19:27;;;;;;;2.47;1.87;;;7.80;99.90;;;;;;4977198;28;21108;-72
2022/02/04 16:24:39;;;;;;;;;;;;;;;;;;;;;
2022/02/04 16:26:53;;;;;;;2.30;2.10;;;7.70;99.90;;;;;;4991503;28;20222;-72
2022/02/04 16:29:19;;;;;;;2.07;1.80;;;7.70;99.90;;;;;;4981552;28;20226;-72
2022/02/04 16:31:45;;;;;;;2.00;1.83;;;7.70;99.90;;;;;;4984256;28;20473;-71
2022/02/04 16:34:12;;;;;;;1.97;1.87;;;7.70;99.90;;;;;;4988841;28;20703;-72
2022/02/04 16:36:44;;;;;;;2.47;2.27;;;7.70;99.90;;;;;;4991621;28;20485;-71
2022/02/04 16:39:11;;;;;;;2.07;1.83;;;7.70;99.90;;;;;;4992076;28;20457;-71
2022/02/04 16:41:52;;;;;;;3.70;1.90;;;7.70;99.90;;;;;;4988483;28;20452;-72
2022/02/04 16:44:19;;;;;;;1.67;1.57;;;7.70;99.90;;;;;;4994911;28;20460;-69
2022/02/04 16:46:46;;;;;;;1.70;1.60;;;7.60;99.90;;;;;;5001396;28;20457;-69
2022/02/04 16:49:12;;;;;;;1.90;1.63;;;7.60;99.90;;;;;;4978510;28;20458;-68
2022/02/04 16:51:38;;;;;;;1.30;1.20;;;7.60;99.90;;;;;;4983724;28;20470;-69
2022/02/04 16:54:05;;;;;;;1.20;1.10;;;7.60;99.90;;;;;;4976770;28;20492;-69
2022/02/04 16:56:30;;;;;;;1.13;1.10;;;7.60;99.90;;;;;;4965470;28;20452;-69
2022/02/04 16:58:58;;;;;;;2.30;1.10;;;7.60;99.90;;;;;;4998355;28;20468;-69
2022/02/04 17:01:24;;;;;;;2.30;1.53;;;7.60;99.90;;;;;;4981900;28;20272;-69
2022/02/04 17:03:50;;;;;;;13.30;8.37;;;7.60;99.90;;;;;;4982369;28;20942;-69
2022/02/04 17:06:17;;;;;;;9.73;5.33;;;7.50;99.90;;;;;;4980675;28;20661;-69
2022/02/04 17:08:48;;;;;;;3.10;2.30;;;7.50;99.90;;;;;;5000018;28;20602;-69
2022/02/04 17:11:19;;;;;;;1.70;1.60;;;7.50;99.90;;;;;;4980051;28;20491;-68
2022/02/04 17:13:45;;;;;;;5.57;3.30;;;7.50;99.90;;;;;;4993353;28;20994;-68
2022/02/04 17:16:11;;;;;;;5.97;3.70;;;7.50;99.90;;;;;;4990795;28;20488;-69
2022/02/04 17:18:38;;;;;;;5.43;4.00;;;7.50;99.90;;;;;;4975838;28;20230;-69
2022/02/04 17:21:04;;;;;;;9.50;4.83;;;7.50;99.90;;;;;;4968022;28;20492;-69
2022/02/04 17:23:41;;;;;;;3.27;3.07;;;7.60;99.90;;;;;;4991320;28;21016;-69
2022/02/04 17:26:07;;;;;;;1.87;1.77;;;7.60;99.90;;;;;;4974945;28;20460;-69
2022/02/04 17:28:32;;;;;;;1.30;1.30;;;7.60;99.90;;;;;;4984845;28;20491;-69
2022/02/04 17:30:59;;;;;;;1.60;1.50;;;7.60;99.90;;;;;;4988834;28;20227;-69
2022/02/04 17:33:26;;;;;;;0.97;0.93;;;7.60;99.90;;;;;;4985651;28;20241;-69
2022/02/04 17:35:56;;;;;;;2.73;1.90;;;7.60;99.90;;;;;;4988130;28;20437;-69
2022/02/04 17:38:24;;;;;;;3.53;1.77;;;7.60;99.90;;;;;;4985159;28;20483;-69
2022/02/04 17:40:50;;;;;;;1.07;0.97;;;7.60;99.90;;;;;;4972118;28;20465;-70
2022/02/04 17:43:18;;;;;;;1.00;1.00;;;7.60;99.90;;;;;;4973373;28;20465;-69
2022/02/04 17:45:44;;;;;;;1.93;1.40;;;7.60;99.90;;;;;;4979612;28;20458;-69
2022/02/04 17:48:20;;;;;;;1.13;1.07;;;7.60;99.90;;;;;;4988774;28;20479;-69
2022/02/04 17:53:20;;;;;;;1.17;1.07;;;7.60;99.90;;;;;;4982577;28;20532;-70
2022/02/04 17:55:53;;;;;;;1.30;1.20;;;7.60;99.90;;;;;;5001345;28;20962;-70
2022/02/04 18:01:24;;;;;;;1.30;1.20;;;7.60;99.90;;;;;;4957275;28;20450;-69
2022/02/04 18:09:05;;;;;;;1.40;1.30;;;7.60;99.90;;;;;;4990843;28;20453;-69
2022/02/04 18:11:31;;;;;;;1.00;1.00;;;7.60;99.90;;;;;;4984135;28;20465;-70
2022/02/04 18:13:57;;;;;;;3.43;3.00;;;7.60;99.90;;;;;;4998620;28;20229;-68
2022/02/04 18:16:23;;;;;;;3.17;2.80;;;7.60;99.90;;;;;;4984109;28;20453;-69
2022/02/04 18:18:49;;;;;;;12.10;5.67;;;7.60;99.90;;;;;;4987045;28;20222;-70
2022/02/04 18:21:15;;;;;;;12.50;6.67;;;7.60;99.90;;;;;;4955841;28;20692;-70
2022/02/04 18:23:41;;;;;;;11.07;6.30;;;7.60;99.90;;;;;;4974993;28;20283;-69
2022/02/04 18:26:09;;;;;;;10.40;5.87;;;7.60;99.90;;;;;;4988940;28;21033;-69
2022/02/04 18:28:34;;;;;;;14.67;7.47;;;7.60;99.90;;;;;;4985959;28;20465;-70
2022/02/04 18:31:00;;;;;;;23.33;10.47;;;7.60;99.90;;;;;;5000519;28;20464;-71
2022/02/04 18:33:26;;;;;;;26.77;13.17;;;7.60;99.90;;;;;;4985972;28;20583;-73
2022/02/04 18:35:58;;;;;;;28.00;13.33;;;7.60;99.90;;;;;;4983850;28;20230;-73
2022/02/04 18:38:35;;;;;;;23.23;12.17;;;7.60;99.90;;;;;;4985409;28;20226;-73
2022/02/04 18:43:41;;;;;;;26.43;11.10;;;7.60;99.90;;;;;;4977911;28;20453;-72
2022/02/04 18:48:58;;;;;;;5.17;4.53;;;7.70;99.90;;;;;;4986888;28;20453;-73
2022/02/04 18:54:13;;;;;;;3.13;2.80;;;7.70;99.90;;;;;;4995664;28;20466;-73
2022/02/04 18:59:28;;;;;;;1.97;1.63;;;7.70;99.90;;;;;;4983700;28;20461;-72
2022/02/04 19:01:54;;;;;;;1.37;1.23;;;7.70;99.90;;;;;;4984413;28;20548;-72
2022/02/04 19:04:27;;;;;;;2.07;1.90;;;7.70;99.90;;;;;;4984728;28;20485;-72
2022/02/04 19:07:03;;;;;;;1.50;1.40;;;7.70;99.90;;;;;;4963982;28;20445;-71
2022/02/04 19:09:28;;;;;;;1.33;1.23;;;7.70;99.90;;;;;;4979355;28;20489;-72
2022/02/04 19:12:01;;;;;;;1.33;1.23;;;7.70;99.90;;;;;;4980342;28;20502;-73
2022/02/04 19:17:11;;;;;;;;;;;;;;;;;;;;;
2022/02/04 19:24:46;;;;;;;0.73;0.57;;;7.70;99.90;;;;;;4985618;28;20464;-71
2022/02/04 19:27:12;;;;;;;0.80;0.57;;;7.60;99.90;;;;;;4964605;28;20462;-70
2022/02/04 19:29:44;;;;;;;1.00;0.70;;;7.60;99.90;;;;;;4982690;28;21123;-71
2022/02/04 19:32:11;;;;;;;4.70;3.00;;;7.60;99.90;;;;;;4983648;28;20301;-71
2022/02/04 19:34:37;;;;;;;2.20;1.50;;;7.60;99.90;;;;;;4986705;28;20523;-70
2022/02/04 19:37:03;;;;;;;1.00;0.80;;;7.60;99.90;;;;;;4991111;28;20450;-71
2022/02/04 19:39:29;;;;;;;0.80;0.80;;;7.50;99.90;;;;;;4984448;28;20214;-71
2022/02/04 19:42:09;;;;;;;;;;;;;;;;;;;;;
2022/02/04 19:44:28;;;;;;;0.47;0.47;;;7.40;99.90;;;;;;4974983;28;20241;-71
2022/02/04 19:46:59;;;;;;;0.70;0.60;;;7.40;99.90;;;;;;4989136;28;20453;-71
2022/02/04 19:49:29;;;;;;;0.53;0.53;;;7.40;99.90;;;;;;4986199;28;20803;-71
2022/02/04 19:52:03;;;;;;;0.50;0.50;;;7.30;99.90;;;;;;4969148;28;20473;-70
2022/02/04 19:55:09;;;;;;;0.53;0.53;;;7.30;99.90;;;;;;4995451;28;20867;-70
2022/02/04 20:26:45;;;;;;;1.17;1.10;;;6.60;99.90;;;;;;4980908;28;20536;-69
2022/02/04 20:29:11;;;;;;;1.33;1.23;;;6.50;99.90;;;;;;4982500;28;20505;-70
2022/02/04 20:31:37;;;;;;;2.30;1.50;;;6.50;99.90;;;;;;4996577;28;20225;-70
2022/02/04 20:34:02;;;;;;;2.57;2.30;;;6.50;99.90;;;;;;4988866;28;20277;-70
2022/02/04 20:36:28;;;;;;;2.23;1.90;;;6.40;99.90;;;;;;4983980;28;20222;-69
2022/02/04 20:38:54;;;;;;;2.70;1.20;;;6.30;99.90;;;;;;4989738;28;20713;-70
2022/02/04 20:41:24;;;;;;;1.43;1.00;;;6.30;99.90;;;;;;4972243;28;20229;-70
2022/02/04 20:43:50;;;;;;;3.00;1.50;;;6.30;99.90;;;;;;4968240;28;20613;-70
2022/02/04 20:46:16;;;;;;;1.47;1.13;;;6.30;99.90;;;;;;5003763;28;20465;-70
2022/02/04 20:48:43;;;;;;;3.23;1.10;;;6.20;99.90;;;;;;4991788;28;20240;-70
2022/02/04 20:51:10;;;;;;;3.13;1.27;;;6.20;99.90;;;;;;4994001;28;20257;-70
2022/02/04 20:53:37;;;;;;;9.83;2.50;;;6.20;99.90;;;;;;4989543;28;20473;-69
2022/02/04 20:56:04;;;;;;;11.60;4.70;;;6.20;99.90;;;;;;4990374;28;20484;-70
2022/02/04 20:58:30;;;;;;;4.57;2.60;;;6.10;99.90;;;;;;4990871;28;20904;-70
2022/02/04 21:00:57;;;;;;;2.80;1.20;;;6.10;99.90;;;;;;4991920;28;20453;-70
2022/02/04 21:03:26;;;;;;;13.83;5.80;;;6.10;99.90;;;;;;4991326;28;20306;-71
2022/02/04 21:06:03;;;;;;;13.23;4.70;;;5.90;99.90;;;;;;5012382;28;20491;-70